Terminal Aerodrome Forecast
Issued by NWS

Home | Current Version | Previous Version | Text Only | Print | Product List | Glossary On
Versions: 1 2 3 4 5 6 7 8 9 10 11 12 13 14 15 16 17 18 19 20 21 22 23 24 25 26 27
082
FTUS43 KLOT 092100 AAA
TAFORD
TAF AMD
KORD 092100Z 0921/1024 27010KT P6SM BKN035
     FM100000 27007KT P6SM BKN120
     FM101500 24008KT P6SM OVC080
     FM102200 18007KT P6SM OVC070 PROB30 1022/1024 3SM -SN OVC025=

USA.gov is the U.S. government's official web portal to all federal, state and local government web resources and services.